EDT,Max TemperatureF,Mean TemperatureF,Min TemperatureF,Max Dew PointF,MeanDew PointF,Min DewpointF,Max Humidity, Mean Humidity, Min Humidity, Max Sea Level PressureIn, Mean Sea Level PressureIn, Min Sea Level PressureIn, Max VisibilityMiles, Mean VisibilityMiles, Min VisibilityMiles, Max Wind SpeedMPH, Mean Wind SpeedMPH, Max Gust SpeedMPH,PrecipitationIn, CloudCover, Events, WindDirDegrees
2012-8-1,84,74,63,70,65,62,96,79,50,30.00,29.94,29.88,10,8,0,9,1,,0.12,3,Fog-Rain-Thunderstorm,195
2012-8-2,88,76,63,69,65,62,94,70,42,30.00,29.95,29.92,10,7,2,6,1,,0.00,0,,166
2012-8-3,88,78,67,70,68,65,96,74,51,30.12,30.05,29.98,10,7,1,12,2,,0.00,1,,172
2012-8-4,89,79,69,70,68,65,93,74,48,30.23,30.17,30.12,10,8,2,16,3,22,0.00,2,Rain-Thunderstorm,177
2012-8-5,88,79,70,74,69,66,92,78,51,30.22,30.17,30.11,10,9,4,14,4,21,0.28,3,Rain-Thunderstorm,209
2012-8-6,81,74,68,71,69,65,94,85,65,30.16,30.11,30.07,10,8,2,10,2,17,0.33,5,Rain,189
2012-8-7,84,76,67,71,67,63,96,78,48,30.09,30.05,30.00,10,8,1,8,1,,0.00,4,,138
2012-8-8,86,78,68,69,63,52,93,67,30,30.07,30.03,29.98,10,8,2,8,1,,0.00,1,,25
2012-8-9,89,76,63,70,65,59,94,69,37,30.04,29.97,29.89,10,8,3,9,2,,0.00,1,Thunderstorm,176
2012-8-10,82,74,67,70,65,63,94,76,55,29.89,29.84,29.79,10,10,2,26,6,40,0.37,6,Rain-Thunderstorm,192
2012-8-11,82,74,65,66,61,55,93,68,42,29.98,29.92,29.85,10,9,5,12,3,18,0.00,3,Thunderstorm,206
2012-8-12,81,69,57,61,57,53,94,65,38,30.08,30.03,29.99,10,10,7,5,1,,0.00,2,,306
2012-8-13,84,70,57,64,59,55,94,67,39,30.13,30.05,29.99,10,9,2,10,1,,0.00,3,,208
2012-8-14,84,75,66,66,63,58,94,71,41,30.00,29.96,29.88,10,9,3,13,3,18,0.72,5,Rain-Thunderstorm,208
2012-8-15,79,71,63,67,64,59,96,86,54,30.04,29.97,29.93,10,6,0,13,1,22,0.04,4,Fog-Rain-Thunderstorm,193
2012-8-16,82,70,57,64,59,55,97,71,39,30.10,30.04,29.97,10,7,0,6,1,,0.01,3,Fog,203
2012-8-17,85,72,59,65,61,57,94,72,44,30.00,29.93,29.87,10,8,2,14,2,18,0.00,3,,245
2012-8-18,80,71,62,64,58,50,85,64,35,30.00,29.96,29.91,10,10,4,7,2,,0.00,3,,11
2012-8-19,70,66,62,63,60,56,92,82,60,30.04,29.98,29.94,10,9,3,7,1,,0.41,6,Rain-Thunderstorm,26
2012-8-20,77,68,58,63,60,57,96,84,51,30.04,29.95,29.91,10,7,0,15,1,20,0.13,5,Fog-Rain-Thunderstorm,189
2012-8-21,80,70,59,62,57,50,97,75,35,30.15,30.08,30.04,10,6,0,7,1,,0.00,3,Fog,152
2012-8-22,79,68,58,63,59,54,94,75,46,30.21,30.17,30.14,10,8,2,9,1,,0.00,2,Rain,144
2012-8-23,82,70,59,66,61,58,97,76,44,30.23,30.20,30.16,10,7,0,9,1,,0.00,3,Fog,120
2012-8-24,79,70,60,65,62,59,96,79,50,30.24,30.21,30.18,10,7,0,10,1,,0.00,2,Fog-Thunderstorm,38
2012-8-25,72,68,64,65,62,55,94,84,55,30.24,30.22,30.19,10,7,3,12,2,,0.32,7,Rain-Thunderstorm,22
2012-8-26,76,70,65,66,64,62,94,82,61,30.25,30.20,30.17,10,8,3,9,4,,0.07,7,Rain,59
2012-8-27,85,72,60,66,63,58,95,73,39,30.22,30.14,30.05,10,8,1,10,3,,0.00,1,,186
2012-8-28,87,76,64,67,62,54,88,70,33,30.06,30.01,29.96,10,10,10,10,1,,0.00,2,,6
2012-8-29,82,69,56,64,59,55,96,72,44,30.09,30.05,30.00,10,8,0,5,1,,0.00,3,Fog,86
2012-8-30,84,72,59,68,63,58,94,73,52,30.19,30.14,30.09,10,9,3,8,1,,0.00,2,,167
2012-8-31,92,75,58,68,63,57,97,70,32,30.22,30.16,30.11,10,7,0,9,1,,0.00,2,Fog,272